メインページ
METAR-TAF:

METAR-TAF

空港 :

エルサルバドル, エルサルバドル

エルサルバドル国際空港

緯度: 13-26N, 経度: 089-03W, 海抜: 25m

現時点の気象観測

当レポートは49分前の00:50(UTC)に作成
南西の風 4kt
気温 28°C
湿度 79%
気圧 1009 hPa
視程10km以上
高度1100ftの雲はほとんどない

METAR: MSLP 240050Z 23004KT 9999 FEW011 28/24 Q1008 A2979 NOSIG

時間: 19:39 (01:39 UTC)

予報

当レポートは4時間14分前の21:25(UTC)に作成
予報は24日の 00時(UTC)から 24日の 24時(UTC)まで有効
西の風 8kt
視程10km以上
高度3000ftの雲はほとんどない
高度4000ftの雲はほとんどない, 積乱雲.
24日の 0500時(UTC)から
北/北東の風 6kt
高度7000ftの雲は散在している

TAF: MSLP 232125Z 2400/2424 26008KT 9999 FEW030 FEW040CB TX33/2418Z TN21/2411Z FM240500 03006KT SCT070

4,000以上の空港の気象観測と天気予報(METAR報とTAF報)

利用可能な観測所は地図上に黄色い丸と赤い丸で示す。

丸の上にカーソルを重ねると観測所名を参照できる。

次にクリックすると気象観測と天気予報を参照できる。

マップの切り替え:黒色「×」印の緑ボタンをクリックして拡大、「-」印の緑ボタンをクリックして縮小、緑色の三角印をクリックして隣りの地図に切り替え


METAR-TAF: